Spencer, Louisiana
Current Conditions -  °F | °C
As of 5:53 PM on Friday 21 Nov 2014 (Local Time) from KMLU Reporting Station
Overcast Overcast  
Wind Chill: 64°   Ceiling: 10000
Heat Index: 64°   Visibility: 10mi
Dew Point: 47°   Wind: 0mph
Humidity: 54%   Direction: NA
Pressure: 30.24"   Gusts: NA
Location:  32.6145°N, 92.1402°W
Report Text: KMLU 212353Z 00000KT 10SM SCT075 OVC100 18/08 A3024 RMK AO2 SLP238 T01780083 10200 20178 52011
Loading
Personal Weather Stations






























Interactive Weather Map New forecast layout! Learn more

10-Day Weather Forecast

Advertisements
Track Severe Weather on mobile